• Join FlightAware (Why Join?)
  • Login
  • US Flag 
05:24PM EDT


 

Airport Tracker/Info


-or-


 

Live Flight TrackerFlight Track Log ✈ N172KD ✈ 22-Jun-2013 ✈ KEKX - KMTN

Flight Track Log - Related Links

Times and Time Zones

All times are in EDT time to prevent confusion due to time zone crossing. See the N172KD flight status page for this flight to view local times or setup timezone preferences in your user account.

Time Position Orientation Groundspeed Altitude Reporting Facility
EDT Latitude Longitude Course Direction KTS MPH feet Rate Location/Type
09:15AM 37.6833 -85.7833 90° East 114 131 3,800  Level Louisville TRACON
09:17AM 37.6825 -85.7333 91° East 113 130 4,400 420 Climbing Indianapolis Center
09:18AM 37.6867 -85.6953 82° East 111 128 4,800 420 Climbing Indianapolis Center
09:19AM 37.6833 -85.7253 90° East  Level FlightAware Approximate
09:19AM 37.6906 -85.6564 83° East 111 128 5,300  Level Indianapolis Center
09:20AM 37.6833 -85.6870 90° East  Level FlightAware Approximate
09:20AM 37.6939 -85.6183 84° East 110 127 5,700  Level Indianapolis Center
09:21AM 37.6833 -85.6488 90° East  Level FlightAware Approximate
09:21AM 37.6981 -85.5736 83° East 107 123 6,300  Level Indianapolis Center
09:22AM 37.7011 -85.5389 84° East 102 117 6,700 300 Climbing Indianapolis Center
09:23AM 37.7044 -85.5014 84° East 105 121 7,000 120 Climbing Indianapolis Center
09:24AM 37.7072 -85.4600 85° East 116 133 7,000  Level Indianapolis Center
09:25AM 37.7181 -85.4197 71° East 120 138 7,000  Level Indianapolis Center
09:26AM 37.7300 -85.3800 69° East 120 138 7,000  Level Indianapolis Center
09:27AM 37.7422 -85.3417 68° East 118 136 7,000  Level Indianapolis Center
09:28AM 37.7536 -85.2942 73° East 120 138 7,000  Level Indianapolis Center
09:29AM 37.7644 -85.2539 71° East 120 138 7,000 -60 Level Indianapolis Center
09:30AM 37.7739 -85.2136 73° East 120 138 6,900 -60 Descending Indianapolis Center
09:31AM 37.7844 -85.1703 73° East 119 137 6,900  Level Indianapolis Center
09:32AM 37.7939 -85.1308 73° East 117 135 6,900  Level Indianapolis Center
09:33AM 37.8044 -85.0903 72° East 119 137 6,900  Level Indianapolis Center
09:34AM 37.8147 -85.0467 73° East 120 138 6,900  Level Indianapolis Center
09:35AM 37.8264 -85.0064 70° East 122 140 6,900  Level Indianapolis Center
09:36AM 37.8361 -84.9667 73° East 119 137 6,900  Level Indianapolis Center
09:37AM 37.8481 -84.9250 70° East 123 142 6,900  Level Indianapolis Center
09:38AM 37.8589 -84.8847 71° East 122 140 6,900  Level Indianapolis Center
09:39AM 37.8683 -84.8456 73° East 119 137 7,000  Climbing Indianapolis Center
09:40AM 37.8822 -84.7986 69° East 122 140 7,000  Level Indianapolis Center
09:41AM 37.8931 -84.7583 71° East 121 139 7,000  Level Indianapolis Center
09:42AM 37.9031 -84.7192 72° East 118 136 7,000  Level Indianapolis Center
09:44AM 37.9122 -84.6822 73° East 117 135 7,000  Level Indianapolis Center
09:45AM 37.9239 -84.6350 73° East 117 135 7,000  Level Indianapolis Center
09:46AM 37.9344 -84.5931 72° East 119 137 7,000  Level Indianapolis Center
09:47AM 37.9450 -84.5544 71° East 119 137 7,000  Level Indianapolis Center
09:48AM 37.9556 -84.5119 73° East 121 139 7,000  Level Indianapolis Center
09:49AM 37.9636 -84.4722 76° East 118 136 7,000  Level Indianapolis Center
09:50AM 37.9678 -84.4289 83° East 121 139 7,000  Level Indianapolis Center
09:51AM 37.9706 -84.3872 85° East 121 139 7,000  Level Indianapolis Center
09:52AM 37.9761 -84.3450 81° East 121 139 7,000  Level Indianapolis Center
09:53AM 37.9831 -84.2956 80° East 122 140 7,000  Level Indianapolis Center
09:54AM 37.9903 -84.2528 78° East 123 142 7,000  Level Indianapolis Center
09:55AM 37.9969 -84.2111 79° East 122 140 7,000  Level Indianapolis Center
09:56AM 38.0025 -84.1675 81° East 124 143 7,000  Level Indianapolis Center
09:57AM 38.0081 -84.1250 81° East 123 142 7,000  Level Indianapolis Center
09:58AM 38.0128 -84.0814 82° East 125 144 7,000  Level Indianapolis Center
09:59AM 38.0181 -84.0308 82° East 124 143 7,000  Level Indianapolis Center
10:00AM 38.0228 -83.9883 82° East 123 142 7,000  Level Indianapolis Center
10:01AM 38.0286 -83.9450 80° East 123 142 7,000  Level Indianapolis Center
10:02AM 38.0353 -83.9022 79° East 124 143 7,000  Level Indianapolis Center
10:03AM 38.0408 -83.8586 81° East 124 143 7,000  Level Indianapolis Center
10:04AM 38.0464 -83.8158 81° East 123 142 7,000  Level Indianapolis Center
10:05AM 38.0528 -83.7714 80° East 125 144 7,000  Level Indianapolis Center
10:06AM 38.0600 -83.7211 80° East 125 144 7,000  Level Indianapolis Center
10:07AM 38.0642 -83.6792 83° East 122 140 7,000  Level Indianapolis Center
10:08AM 38.0694 -83.6339 82° East 127 146 7,000  Level Indianapolis Center
10:09AM 38.0758 -83.5919 79° East 124 143 7,000  Level Indianapolis Center
10:10AM 38.0811 -83.5497 81° East 122 140 7,000  Level Indianapolis Center
10:11AM 38.0861 -83.5072 81° East 122 140 7,000  Level Indianapolis Center
10:12AM 38.0911 -83.4636 82° East 125 144 7,000  Level Indianapolis Center
10:13AM 38.0978 -83.4131 80° East 124 143 7,000  Level Indianapolis Center
10:14AM 38.1019 -83.3708 83° East 122 140 7,000  Level Indianapolis Center
10:15AM 38.1075 -83.3292 80° East 121 139 7,000  Level Indianapolis Center
10:16AM 38.1128 -83.2858 81° East 122 140 7,000  Level Indianapolis Center
10:17AM 38.1175 -83.2425 82° East 122 140 7,000  Level Indianapolis Center
10:18AM 38.1228 -83.1992 81° East 123 142 7,000  Level Indianapolis Center
10:20AM 38.1289 -83.1592 79° East 119 137 7,000  Level Indianapolis Center
10:21AM 38.1333 -83.1075 84° East 124 143 7,000  Level Indianapolis Center
10:22AM 38.1389 -83.0672 80° East 119 137 7,000  Level Indianapolis Center
10:23AM 38.1433 -83.0233 83° East 122 140 7,000  Level Indianapolis Center
10:24AM 38.1483 -82.9794 82° East 126 145 7,000  Level Indianapolis Center
10:25AM 38.1539 -82.9389 80° East 120 138 7,000  Level Indianapolis Center
10:26AM 38.1603 -82.8958 79° East 121 139 7,000  Level Indianapolis Center
10:27AM 38.1672 -82.8542 78° East 121 139 7,000  Level Indianapolis Center
10:28AM 38.1758 -82.8039 78° East 122 140 7,000  Level Indianapolis Center
10:29AM 38.1833 -82.7625 77° East 121 139 7,000  Level Indianapolis Center
10:30AM 38.1906 -82.7197 78° East 123 142 7,000  Level Indianapolis Center
10:31AM 38.1992 -82.6767 76° East 125 144 7,000  Level Indianapolis Center
10:32AM 38.2050 -82.6347 80° East 121 139 7,000  Level Indianapolis Center
10:33AM 38.2119 -82.5922 78° East 122 140 7,000  Level Indianapolis Center
10:34AM 38.2200 -82.5486 77° East 126 145 7,000  Level Indianapolis Center
10:35AM 38.2283 -82.4978 78° East 126 145 7,000  Level Indianapolis Center
10:36AM 38.2347 -82.4617 77° East 121 139 7,000  Level Indianapolis Center
10:37AM 38.2431 -82.4136 78° East 125 144 7,000  Level Indianapolis Center
10:38AM 38.2511 -82.3675 77° East 124 143 7,000  Level Indianapolis Center
10:39AM 38.2581 -82.3256 78° East 122 140 7,000  Level Indianapolis Center
10:40AM 38.2661 -82.2811 77° East 127 146 7,000  Level Indianapolis Center
10:41AM 38.2722 -82.2369 80° East 127 146 7,000  Level Indianapolis Center
10:42AM 38.2800 -82.1967 76° East 120 138 7,000  Level Indianapolis Center
10:43AM 38.2872 -82.1531 78° East 124 143 7,000  Level Indianapolis Center
10:44AM 38.2931 -82.1103 80° East 124 143 7,000  Level Indianapolis Center
10:45AM 38.3008 -82.0689 77° East 121 139 7,000  Level Indianapolis Center
10:46AM 38.3092 -82.0203 78° East 118 136 7,000  Level Indianapolis Center
10:47AM 38.3156 -81.9792 79° East 118 136 7,000  Level Indianapolis Center
10:48AM 38.3217 -81.9383 79° East 117 135 7,000  Level Indianapolis Center
10:49AM 38.3289 -81.8972 77° East 118 136 7,000  Level Indianapolis Center
10:50AM 38.3353 -81.8561 79° East 119 137 7,000  Level Indianapolis Center
10:51AM 38.3414 -81.8158 79° East 117 135 7,000  Level Indianapolis Center
10:52AM 38.3486 -81.7744 77° East 119 137 7,000  Level Indianapolis Center
10:53AM 38.3656 -81.7272 65° Northeast 122 140 7,000  Level Indianapolis Center
10:54AM 38.3792 -81.6864 67° East 124 143 7,000  Level Indianapolis Center
10:56AM 38.3933 -81.6472 65° Northeast 123 142 7,000  Level Indianapolis Center
10:57AM 38.4078 -81.6081 65° Northeast 123 142 7,000  Level Indianapolis Center
10:58AM 38.4217 -81.5683 66° East 123 142 7,000  Level Indianapolis Center
10:59AM 38.4361 -81.5278 66° East 124 143 7,000  Level Indianapolis Center
11:00AM 38.4494 -81.4875 67° East 125 144 7,000  Level Indianapolis Center
11:01AM 38.4667 -81.4400 65° Northeast 123 142 7,000  Level Indianapolis Center
11:02AM 38.4803 -81.4011 66° East 122 140 7,000  Level Indianapolis Center
11:03AM 38.4928 -81.3614 68° East 121 139 7,000  Level Indianapolis Center
11:04AM 38.5061 -81.3228 66° East 120 138 7,000  Level Indianapolis Center
11:05AM 38.5183 -81.2828 69° East 120 138 7,000  Level Indianapolis Center
11:06AM 38.5317 -81.2433 67° East 122 140 7,000  Level Indianapolis Center
11:07AM 38.5472 -81.1958 67° East 121 139 7,000  Level Indianapolis Center
11:08AM 38.5608 -81.1572 66° East 121 139 7,000  Level Indianapolis Center
11:09AM 38.5747 -81.1181 66° East 121 139 7,000  Level Indianapolis Center
11:10AM 38.5886 -81.0783 66° East 122 140 7,000  Level Indianapolis Center
11:11AM 38.6022 -81.0378 67° East 123 142 7,000  Level Indianapolis Center
11:12AM 38.6153 -80.9975 67° East 124 143 7,000  Level Indianapolis Center
11:13AM 38.6289 -80.9581 66° East 123 142 7,000  Level Indianapolis Center
11:14AM 38.6450 -80.9106 67° East 121 139 7,000  Level Indianapolis Center
11:15AM 38.6575 -80.8694 69° East 122 140 7,000  Level Indianapolis Center
11:16AM 38.6714 -80.8303 66° East 123 142 7,000  Level Indianapolis Center
11:17AM 38.6847 -80.7897 67° East 124 143 7,000  Level Indianapolis Center
11:18AM 38.7000 -80.7497 64° Northeast 124 143 7,000  Level Indianapolis Center
11:19AM 38.7125 -80.7092 68° East 124 143 7,000  Level Indianapolis Center
11:20AM 38.7256 -80.6697 67° East 122 140 7,000  Level Indianapolis Center
11:21AM 38.7411 -80.6228 67° East 120 138 7,000  Level Indianapolis Center
11:22AM 38.7539 -80.5839 67° East 119 137 7,000  Level Indianapolis Center
11:23AM 38.7661 -80.5450 68° East 118 136 7,000  Level Indianapolis Center
11:24AM 38.7794 -80.5039 67° East 122 140 7,000  Level Indianapolis Center
11:25AM 38.7942 -80.4653 64° Northeast 124 143 7,000  Level Indianapolis Center
11:26AM 38.8050 -80.4247 71° East 120 138 7,000  Level Indianapolis Center
11:27AM 38.8189 -80.3858 65° Northeast 121 139 7,000  Level Indianapolis Center
11:29AM 38.8302 -80.3437 71° East  Level FlightAware Approximate
11:36AM 38.9063 -80.0615 70° East  Level FlightAware Approximate
11:37AM 38.9178 -80.0217 70° East  Level FlightAware Approximate
11:38AM 38.9293 -79.9819 70° East  Level FlightAware Approximate
11:38AM 38.9550 -79.9561 70° East 133 153 7,100  Level Washington Center
11:39AM 38.9408 -79.9420 70° East  Level FlightAware Approximate
11:39AM 38.9689 -79.9197 64° Northeast 127 146 7,100  Level Washington Center
11:40AM 38.9523 -79.9021 70° East  Level FlightAware Approximate
11:40AM 38.9786 -79.8803 72° East 117 135 7,100  Level Washington Center
11:41AM 38.9637 -79.8623 70° East  Level FlightAware Approximate
11:41AM 38.9925 -79.8408 66° East 117 135 7,100  Level Washington Center
11:42AM 38.9752 -79.8224 70° East  Level FlightAware Approximate
11:42AM 39.0025 -79.7986 73° East 106 122 7,100  Level Washington Center
11:43AM 38.9866 -79.7825 70° East  Level FlightAware Approximate
11:43AM 39.0164 -79.7594 65° Northeast 106 122 7,100  Level Washington Center
11:44AM 38.9980 -79.7426 70° East  Level FlightAware Approximate
11:44AM 39.0281 -79.7200 69° East 106 122 7,100  Level Washington Center
11:45AM 39.0419 -79.6808 65° Northeast 106 122 7,100  Level Washington Center
11:46AM 39.0539 -79.6333 72° East 119 137 7,100  Level Washington Center
11:47AM 39.0658 -79.5939 69° East 119 137 7,100 -60 Level Washington Center
11:48AM 39.0814 -79.5572 61° Northeast 119 137 7,000 -60 Descending Washington Center
11:49AM 39.0911 -79.5150 73° East 119 137 7,000  Level Washington Center
11:50AM 39.1008 -79.4753 72° East 119 137 7,000  Level Washington Center
11:51AM 39.1083 -79.4356 76° East 119 137 7,000  Level Washington Center
11:52AM 39.1181 -79.3933 73° East 119 137 7,000  Level Washington Center
11:53AM 39.1300 -79.3486 71° East 119 137 7,000  Level Washington Center
11:54AM 39.1353 -79.3058 81° East 124 143 7,000  Level Washington Center
11:55AM 39.1489 -79.2719 63° Northeast 119 137 7,000  Level Washington Center
11:56AM 39.1564 -79.2294 77° East 124 143 7,000  Level Washington Center
11:57AM 39.1722 -79.1900 63° Northeast 124 143 7,000  Level Washington Center
11:58AM 39.1839 -79.1506 69° East 124 143 7,000  Level Washington Center
11:59AM 39.1933 -79.1081 74° East 124 143 7,000  Level Washington Center
12:00PM 39.2072 -79.0658 67° East 124 143 7,000  Level Washington Center
12:01PM 39.2167 -79.0261 73° East 124 143 7,000  Level Washington Center
12:02PM 39.2261 -78.9864 73° East 124 143 7,000  Level Washington Center
12:03PM 39.2294 -78.9436 84° East 118 136 7,000  Level Washington Center
12:04PM 39.2369 -78.9011 77° East 118 136 7,000  Level Washington Center
12:05PM 39.2400 -78.8583 85° East 118 136 7,000  Level Washington Center
12:06PM 39.2475 -78.8186 76° East 118 136 7,000  Level Washington Center
12:07PM 39.2528 -78.7786 80° East 118 136 7,000  Level Washington Center
12:08PM 39.2581 -78.7358 81° East 123 142 7,000  Level Washington Center
12:09PM 39.2631 -78.7011 79° East 118 136 7,000  Level Washington Center
12:10PM 39.2728 -78.6506 76° East 118 136 7,000  Level Washington Center
12:11PM 39.2778 -78.6106 81° East 118 136 7,000  Level Washington Center
12:12PM 39.2853 -78.5681 77° East 123 142 7,000  Level Washington Center
12:13PM 39.2925 -78.5256 78° East 123 142 7,000  Level Washington Center
12:14PM 39.2956 -78.4828 85° East 123 142 7,000  Level Washington Center
12:15PM 39.3008 -78.4428 80° East 123 142 7,000  Level Washington Center
12:16PM 39.3078 -78.4028 77° East 123 142 7,000  Level Washington Center
12:17PM 39.3153 -78.3600 77° East 123 142 7,000  Level Washington Center
12:18PM 39.3203 -78.3200 81° East 123 142 7,000  Level Washington Center
12:19PM 39.3253 -78.2800 81° East 123 142 7,000  Level Washington Center
12:20PM 39.3325 -78.2372 78° East 123 142 7,000  Level Washington Center
12:21PM 39.3356 -78.1944 85° East 123 142 7,000  Level Washington Center
12:22PM 39.3425 -78.1544 77° East 123 142 7,000  Level Washington Center
12:24PM 39.3500 -78.0833 82° East 120 138 7,000 -240 Level Potomac TRACON
12:25PM 39.3500 -78.0500 90° East 121 139 6,500 -540 Descending Potomac TRACON
12:26PM 39.3667 -78.0000 67° East 123 142 6,000 -540 Descending Potomac TRACON
12:27PM 39.3667 -77.9500 90° East 128 147 5,500 -540 Descending Potomac TRACON
12:28PM 39.3833 -77.9167 57° Northeast 131 151 5,000 -300 Descending Potomac TRACON
12:29PM 39.3833 -77.8667 90° East 128 147 5,000  Level Potomac TRACON
12:30PM 39.3833 -77.8167 90° East 125 144 5,000  Level Potomac TRACON
12:31PM 39.4000 -77.7833 57° Northeast 123 142 5,000  Level Potomac TRACON
12:32PM 39.4000 -77.7500 90° East 123 142 5,000  Level Potomac TRACON
12:33PM 39.4000 -77.7000 90° East 124 143 5,000  Level Potomac TRACON
12:34PM 39.4000 -77.6667 90° East 123 142 5,000  Level Potomac TRACON
12:35PM 39.4167 -77.6167 67° East 124 143 5,000  Level Potomac TRACON
12:36PM 39.4167 -77.5667 90° East 123 142 5,000  Level Potomac TRACON
12:37PM 39.4167 -77.5333 90° East 124 143 5,000  Level Potomac TRACON
12:38PM 39.4333 -77.4833 67° East 123 142 5,000  Level Potomac TRACON
12:39PM 39.4333 -77.4333 90° East 121 139 5,000  Level Potomac TRACON
12:40PM 39.4500 -77.4000 57° Northeast 120 138 5,000  Level Potomac TRACON
12:41PM 39.4500 -77.3667 90° East 119 137 5,000  Level Potomac TRACON
12:42PM 39.4500 -77.3167 90° East 122 140 5,000  Level Potomac TRACON
12:43PM 39.4500 -77.2667 90° East 124 143 5,000  Level Potomac TRACON
12:44PM 39.4667 -77.2333 57° Northeast 121 139 5,000  Level Potomac TRACON
12:45PM 39.4667 -77.1833 90° East 125 144 5,000  Level Potomac TRACON
12:46PM 39.4667 -77.1500 90° East 118 136 5,000  Level Potomac TRACON
12:47PM 39.4833 -77.1000 67° East 120 138 5,000 -60 Level Potomac TRACON
12:48PM 39.4833 -77.0667 90° East 121 139 4,900 -300 Descending Potomac TRACON
12:49PM 39.4833 -77.0167 90° East 129 148 4,400 -600 Descending Potomac TRACON
12:50PM 39.5000 -76.9667 67° East 134 154 3,800 -180 Descending Potomac TRACON
12:51PM 39.4833 -76.9333 123° Southeast 117 135 4,100 60 Climbing Potomac TRACON
12:52PM 39.4667 -76.8833 113° Southeast 121 139 4,000 -360 Descending Potomac TRACON
12:53PM 39.4667 -76.8500 90° East 119 137 3,400 -540 Descending Potomac TRACON
12:54PM 39.4500 -76.8167 123° Southeast 112 129 3,000 -300 Descending Potomac TRACON
12:55PM 39.4333 -76.7667 113° Southeast 111 128 2,800 -120 Descending Potomac TRACON
12:56PM 39.4333 -76.7333 90° East 109 125 2,800 -120 Level Potomac TRACON
12:57PM 39.4167 -76.7000 123° Southeast 113 130 2,600 -240 Descending Potomac TRACON
12:58PM 39.4167 -76.6667 90° East 113 130 2,400 -240 Descending Potomac TRACON
12:59PM 39.4000 -76.6167 113° Southeast 114 131 2,200 -240 Descending Potomac TRACON
01:00PM 39.4000 -76.5833 90° East 109 125 2,000 -300 Descending Potomac TRACON
01:01PM 39.3833 -76.5500 123° Southeast 112 129 1,600 -360 Descending Potomac TRACON
01:02PM 39.3667 -76.5167 123° Southeast 101 116 1,300 -240 Descending Potomac TRACON
01:03PM 39.3667 -76.4833 90° East 94 108 1,200 -240 Descending Potomac TRACON
01:04PM 39.3500 -76.4667 142° Southeast 76 87 900 -420 Descending Potomac TRACON
01:05PM 39.3500 -76.4333 90° East 66 76 500 -420 Descending Potomac TRACON
01:07PM 39.3257 -76.4138 113° Southeast  Level Estimated
01:14PM 39.3257 -76.4138 113° Southeast  Level Estimated
01:15PM 39.3257 -76.4138 113° Southeast  Level Estimated
01:16PM 39.3257 -76.4138 113° Southeast  Level Estimated